KPSF/PSF METAR and TAF weather

Enter ICAO airport designator
Station Type Date Time Source
KPSF METAR 2019/06/17 05:11 UTC NOAA

KPSF 170511Z AUTO 28004KT 8SM OVC013 17/16 A2988 RMK AO2 T01720161


Station Type Date Time Source
KPSF Decoded METAR 2019/06/17 05:11 UTC NOAA

PITTSFIELD MUNICIPAL AIRPORT , MA, United States (KPSF) 42-26N 073-17W 355M
Jun 17, 2019 - 01:11 AM EDT / 2019.06.17 0511 UTC
Wind: from the W (280 degrees) at 5 MPH (4 KT):0
Visibility: 8 mile(s):0
Sky conditions: overcast
Temperature: 63.0 F (17.2 C)
Dew Point: 61.0 F (16.1 C)
Relative Humidity: 93%
Pressure (altimeter): 29.88 in. Hg (1011 hPa)
ob: KPSF 170511Z AUTO 28004KT 8SM OVC013 17/16 A2988 RMK AO2 T01720161
cycle: 5

Station Type Date Time Source
KPSF TAF 2019/06/17 05:06 UTC NOAA

TAF
AMD KPSF 170504Z 1705/1724 VRB03KT 6SM BR SCT008 OVC015
TEMPO 1705/1708 3SM BR BKN008
FM170800 VRB03KT 1 1/2SM BR BKN003
FM171300 32003KT 6SM BR SCT008 BKN012
FM171500 31004KT P6SM FEW040 SCT090

Example: see airport list